createdAt,value
2017-09-11T00:02:39.345Z,0
2017-09-11T00:07:44.409Z,0
2017-09-11T00:12:49.137Z,0
2017-09-11T00:17:54.535Z,0
2017-09-11T00:22:59.930Z,0
2017-09-11T00:28:04.660Z,0
2017-09-11T00:33:10.056Z,0
2017-09-11T00:38:15.455Z,0
2017-09-11T00:43:20.856Z,0
2017-09-11T00:48:26.924Z,0
2017-09-11T00:53:32.329Z,0
2017-09-11T00:58:36.723Z,0
2017-09-11T01:03:42.119Z,0
2017-09-11T01:08:47.852Z,0
2017-09-11T01:13:52.588Z,0
2017-09-11T01:18:58.654Z,0
2017-09-11T01:24:03.383Z,0
2017-09-11T01:29:08.448Z,0
2017-09-11T01:34:14.182Z,0
2017-09-11T01:39:18.240Z,0
2017-09-11T01:44:23.300Z,0
2017-09-11T01:49:29.367Z,0
2017-09-11T01:54:34.429Z,0
2017-09-11T01:59:39.501Z,0
2017-09-11T02:04:44.893Z,0
2017-09-11T02:09:49.622Z,0
2017-09-11T02:14:55.018Z,0
2017-09-11T02:20:00.755Z,0
2017-09-11T02:25:05.484Z,0
2017-09-11T02:30:10.885Z,0
2017-09-11T02:35:15.950Z,0
2017-09-11T02:40:21.687Z,0
2017-09-11T02:45:27.084Z,0
2017-09-11T02:50:32.148Z,0
2017-09-11T02:55:37.546Z,0
2017-09-11T03:00:42.946Z,0
2017-09-11T03:05:48.011Z,0
2017-09-11T03:10:53.413Z,0
2017-09-11T03:15:57.805Z,0
2017-09-11T03:21:03.537Z,0
2017-09-11T03:26:08.605Z,0
2017-09-11T03:31:14.342Z,0
2017-09-11T03:36:20.411Z,0
2017-09-11T03:41:25.808Z,0
2017-09-11T03:46:31.211Z,0
2017-09-11T03:51:36.607Z,0
2017-09-11T03:56:42.003Z,0
2017-09-11T04:01:47.400Z,0
2017-09-11T04:06:52.811Z,0
2017-09-11T04:11:57.886Z,0
2017-09-11T04:17:03.619Z,0
2017-09-11T04:22:09.020Z,0
2017-09-11T04:27:14.083Z,0
2017-09-11T04:32:19.141Z,1
2017-09-11T04:37:24.207Z,1
2017-09-11T04:42:29.274Z,2
2017-09-11T04:47:34.004Z,2
2017-09-11T04:52:38.732Z,5
2017-09-11T04:57:43.795Z,6
2017-09-11T05:02:49.064Z,10
2017-09-11T05:07:54.153Z,17
2017-09-11T05:12:59.211Z,22
2017-09-11T05:18:04.298Z,24
2017-09-11T05:23:09.698Z,36
2017-09-11T05:28:15.431Z,75
2017-09-11T05:33:20.836Z,78
2017-09-11T05:38:25.903Z,105
2017-09-11T05:43:31.303Z,133
2017-09-11T05:48:36.035Z,70
2017-09-11T05:53:41.436Z,76
2017-09-11T05:58:47.169Z,134
2017-09-11T06:03:52.237Z,132
2017-09-11T06:08:57.641Z,171
2017-09-11T06:14:03.375Z,336
2017-09-11T06:19:08.442Z,226
2017-09-11T06:24:13.840Z,203
2017-09-11T06:29:19.238Z,224
2017-09-11T06:34:24.297Z,275
2017-09-11T06:39:29.026Z,151
2017-09-11T06:44:34.421Z,184
2017-09-11T06:49:39.487Z,289
2017-09-11T06:54:44.541Z,428
2017-09-11T06:59:49.265Z,295
2017-09-11T07:04:54.659Z,434
2017-09-11T07:10:00.060Z,385
2017-09-11T07:15:05.456Z,591
2017-09-11T07:20:10.517Z,1160
2017-09-11T07:25:15.242Z,2361
2017-09-11T07:30:20.642Z,1708
2017-09-11T07:35:25.725Z,3435
2017-09-11T07:40:31.436Z,3307
2017-09-11T07:45:36.510Z,3442
2017-09-11T07:50:41.908Z,4553
2017-09-11T07:55:46.973Z,3148
2017-09-11T08:00:51.371Z,39488
2017-09-11T08:05:56.442Z,3459
2017-09-11T08:11:01.176Z,2124
2017-09-11T08:16:06.582Z,2109
2017-09-11T08:21:11.989Z,12066
2017-09-11T08:26:18.065Z,1660
2017-09-11T08:31:23.478Z,2645
2017-09-11T08:36:29.209Z,3262
2017-09-11T08:41:34.611Z,7343
2017-09-11T08:46:40.018Z,1463
2017-09-11T08:51:44.755Z,5798
2017-09-11T08:56:50.163Z,16352
2017-09-11T09:01:55.574Z,2286
2017-09-11T09:07:00.982Z,1386
2017-09-11T09:12:05.392Z,4538
2017-09-11T09:17:11.135Z,30768
2017-09-11T09:22:16.558Z,61536
2017-09-11T09:27:21.306Z,59272
2017-09-11T09:32:27.051Z,57080
2017-09-11T09:37:32.130Z,2208
2017-09-11T09:42:37.208Z,29784
2017-09-11T09:47:42.263Z,3239
2017-09-11T09:52:46.672Z,2106
2017-09-11T09:57:52.084Z,3392
2017-09-11T10:02:57.157Z,3070
2017-09-11T10:08:02.234Z,3210
2017-09-11T10:13:07.648Z,2286
2017-09-11T10:18:13.055Z,2873
2017-09-11T10:23:18.133Z,2518
2017-09-11T10:28:23.542Z,2745
2017-09-11T10:33:28.670Z,2713
2017-09-11T10:38:33.746Z,2754
2017-09-11T10:43:39.158Z,3437
2017-09-11T10:48:44.570Z,2501
2017-09-11T10:53:49.977Z,2915
2017-09-11T10:58:54.383Z,1962
2017-09-11T11:04:00.462Z,1823
2017-09-11T11:09:05.872Z,2857
2017-09-11T11:14:11.282Z,1986
2017-09-11T11:19:16.355Z,1924
2017-09-11T11:24:21.426Z,2226
2017-09-11T11:29:26.502Z,1759
2017-09-11T11:34:31.576Z,1423
2017-09-11T11:39:36.997Z,1295
2017-09-11T11:44:42.083Z,2422
2017-09-11T11:49:47.500Z,2205
2017-09-11T11:54:52.234Z,1472
2017-09-11T11:59:57.999Z,1268
2017-09-11T12:05:02.746Z,1087
2017-09-11T12:10:07.806Z,1634
2017-09-11T12:15:12.884Z,1614
2017-09-11T12:20:17.980Z,819
2017-09-11T12:25:22.716Z,1814
2017-09-11T12:30:27.453Z,1515
2017-09-11T12:35:31.854Z,1436
2017-09-11T12:40:36.595Z,1412
2017-09-11T12:45:42.002Z,1532
2017-09-11T12:50:47.754Z,1329
2017-09-11T12:55:52.832Z,1386
2017-09-11T13:00:57.903Z,698
2017-09-11T13:06:03.313Z,1622
2017-09-11T13:11:09.068Z,1340
2017-09-11T13:16:14.477Z,1166
2017-09-11T13:21:19.546Z,983
2017-09-11T13:26:24.617Z,580
2017-09-11T13:31:29.692Z,913
2017-09-11T13:36:34.762Z,721
2017-09-11T13:41:39.837Z,632
2017-09-11T13:46:45.243Z,651
2017-09-11T13:51:50.315Z,756
2017-09-11T13:56:54.722Z,701
2017-09-11T14:02:00.131Z,587
2017-09-11T14:07:05.541Z,547
2017-09-11T14:12:09.942Z,553
2017-09-11T14:17:15.757Z,435
2017-09-11T14:22:21.162Z,684
2017-09-11T14:27:26.239Z,531
2017-09-11T14:32:31.310Z,469
2017-09-11T14:37:36.688Z,510
2017-09-11T14:42:42.595Z,704
2017-09-11T14:47:48.225Z,574
2017-09-11T14:52:53.656Z,426
2017-09-11T14:57:59.098Z,277
2017-09-11T15:03:03.839Z,347
2017-09-11T15:08:09.922Z,346
2017-09-11T15:13:14.995Z,343
2017-09-11T15:18:20.740Z,459
2017-09-11T15:23:26.174Z,574
2017-09-11T15:28:30.929Z,489
2017-09-11T15:33:36.705Z,307
2017-09-11T15:38:41.801Z,287
2017-09-11T15:43:46.889Z,276
2017-09-11T15:48:52.306Z,271
2017-09-11T15:53:57.588Z,260
2017-09-11T15:59:03.339Z,252
2017-09-11T16:04:08.423Z,244
2017-09-11T16:09:13.831Z,242
2017-09-11T16:14:19.582Z,228
2017-09-11T16:19:24.334Z,220
2017-09-11T16:24:28.748Z,211
2017-09-11T16:29:33.888Z,201
2017-09-11T16:34:38.975Z,187
2017-09-11T16:39:44.408Z,163
2017-09-11T16:44:49.824Z,148
2017-09-11T16:49:54.912Z,132
2017-09-11T16:55:00.323Z,117
2017-09-11T17:00:05.082Z,104
2017-09-11T17:05:10.503Z,92
2017-09-11T17:10:16.268Z,83
2017-09-11T17:15:22.031Z,80
2017-09-11T17:20:27.774Z,70
2017-09-11T17:25:32.528Z,50
2017-09-11T17:30:37.278Z,38
2017-09-11T17:35:42.704Z,32
2017-09-11T17:40:47.446Z,24
2017-09-11T17:45:52.863Z,16
2017-09-11T17:50:58.950Z,10
2017-09-11T17:56:03.361Z,5
2017-09-11T18:01:07.768Z,3
2017-09-11T18:06:13.514Z,2
2017-09-11T18:11:19.253Z,1
2017-09-11T18:16:25.321Z,0
2017-09-11T18:21:29.744Z,0
2017-09-11T18:26:34.832Z,0
2017-09-11T18:31:40.232Z,0
2017-09-11T18:36:44.962Z,0
2017-09-11T18:41:50.698Z,0
2017-09-11T18:46:56.096Z,0
2017-09-11T18:52:00.503Z,0
2017-09-11T18:57:05.915Z,0
2017-09-11T19:02:09.983Z,0
2017-09-11T19:07:15.062Z,0
2017-09-11T19:12:20.466Z,0
2017-09-11T19:17:25.543Z,0
2017-09-11T19:22:30.947Z,0
2017-09-11T19:27:36.691Z,0
2017-09-11T19:32:42.440Z,0
2017-09-11T19:37:47.862Z,0
2017-09-11T19:42:53.266Z,0
2017-09-11T19:47:58.589Z,0
2017-09-11T19:53:03.330Z,0
2017-09-11T19:58:08.402Z,0
2017-09-11T20:03:13.134Z,0
2017-09-11T20:08:17.877Z,0
2017-09-11T20:13:22.613Z,0
2017-09-11T20:18:28.702Z,0
2017-09-11T20:23:34.113Z,0
2017-09-11T20:28:39.179Z,0
2017-09-11T20:33:44.255Z,0
2017-09-11T20:38:48.997Z,0
2017-09-11T20:43:54.398Z,0
2017-09-11T20:48:59.138Z,0
2017-09-11T20:54:04.877Z,0
2017-09-11T20:59:10.277Z,0
2017-09-11T21:04:15.692Z,0
2017-09-11T21:09:20.092Z,0
2017-09-11T21:14:25.498Z,0
2017-09-11T21:19:30.565Z,0
2017-09-11T21:24:35.629Z,0
2017-09-11T21:29:41.028Z,0
2017-09-11T21:34:46.761Z,0
2017-09-11T21:39:51.829Z,0
2017-09-11T21:44:56.893Z,0
2017-09-11T21:50:02.295Z,0
2017-09-11T21:55:07.371Z,0
2017-09-11T22:00:13.438Z,0
2017-09-11T22:05:19.173Z,0
2017-09-11T22:10:24.237Z,0
2017-09-11T22:15:29.302Z,0
2017-09-11T22:20:35.037Z,0
2017-09-11T22:25:41.033Z,0
2017-09-11T22:30:46.092Z,0
2017-09-11T22:35:50.821Z,0
2017-09-11T22:40:55.222Z,0
2017-09-11T22:46:00.955Z,0
2017-09-11T22:51:06.689Z,0
2017-09-11T22:56:12.427Z,0
2017-09-11T23:01:17.824Z,0
2017-09-11T23:06:22.554Z,0
2017-09-11T23:11:27.955Z,0
2017-09-11T23:16:33.017Z,0
2017-09-11T23:21:37.742Z,0
2017-09-11T23:26:42.805Z,0
2017-09-11T23:31:48.204Z,0
2017-09-11T23:36:53.939Z,0
2017-09-11T23:41:59.336Z,0
2017-09-11T23:47:04.067Z,0
2017-09-11T23:52:09.129Z,0
2017-09-11T23:57:15.197Z,0
